Terminal Aerodrome Forecast
Issued by NWS Jackson, MS

Home | Current Version | Previous Version | Text Only | Print | Product List | Glossary On
Versions: 1 2 3 4 5 6 7 8 9 10 11 12 13
000
FTUS44 KJAN 301749
TAFGLH
TAF
KGLH 301749Z 3018/3118 21015KT P6SM FEW024 SCT035 BKN060
     FM310000 26010G22KT P6SM FEW050 FEW250
     FM310100 26007KT P6SM FEW050 FEW250=

USA.gov is the U.S. government's official web portal to all federal, state and local government web resources and services.